Time;durP1;ratioP1;P1;durP2;ratioP2;P2;SDS_P1;SDS_P2;PMS_P1;PMS_P2;Temp;Humidity;BMP_temperature;BMP_pressure;BME280_temperature;BME280_humidity;BME280_pressure;Samples;Min_cycle;Max_cycle;Signal;HPM_P1;HPM_P2
2023/05/27 00:01:50;;;;;;;8.57;3.28;;;14.50;99.90;;;;;;5090396;28;20219;-66
2023/05/27 00:04:16;;;;;;;10.90;2.88;;;14.50;99.90;;;;;;5090414;28;20647;-66
2023/05/27 00:06:42;;;;;;;10.68;3.08;;;14.50;99.90;;;;;;5092236;28;20168;-66
2023/05/27 00:09:08;;;;;;;15.23;3.72;;;14.30;99.90;;;;;;5094346;28;20225;-67
2023/05/27 00:11:33;;;;;;;14.85;3.90;;;14.30;99.90;;;;;;5094022;28;20537;-67
2023/05/27 00:13:59;;;;;;;12.23;4.45;;;14.30;99.90;;;;;;5094012;28;20172;-69
2023/05/27 00:16:24;;;;;;;10.90;2.92;;;14.20;99.90;;;;;;5093981;28;20654;-63
2023/05/27 00:18:52;;;;;;;17.85;4.35;;;14.10;99.90;;;;;;5093875;28;20230;-63
2023/05/27 00:21:18;;;;;;;16.25;3.47;;;14.00;99.90;;;;;;5093820;28;20212;-63
2023/05/27 00:23:47;;;;;;;16.38;3.95;;;14.00;99.90;;;;;;5093747;28;20234;-65
2023/05/27 00:26:13;;;;;;;11.65;3.55;;;14.00;99.90;;;;;;5093788;28;20269;-65
2023/05/27 00:28:40;;;;;;;13.65;3.53;;;13.90;99.90;;;;;;5093647;28;20476;-65
2023/05/27 00:31:06;;;;;;;14.77;3.95;;;13.90;99.90;;;;;;5093687;28;20174;-65
2023/05/27 00:33:31;;;;;;;11.70;3.72;;;13.80;99.90;;;;;;5093549;28;20254;-65
2023/05/27 00:35:57;;;;;;;14.98;4.03;;;13.80;99.90;;;;;;5093507;28;20215;-65
2023/05/27 00:38:22;;;;;;;20.00;3.80;;;13.80;99.90;;;;;;5093502;28;20600;-65
2023/05/27 00:40:52;;;;;;;13.95;3.78;;;13.80;99.90;;;;;;5093618;28;20233;-64
2023/05/27 00:43:18;;;;;;;12.88;3.42;;;13.80;99.90;;;;;;5093464;28;20204;-64
2023/05/27 00:45:43;;;;;;;14.25;3.95;;;13.70;99.90;;;;;;3606559;28;20697;-64
2023/05/27 00:48:09;;;;;;;15.82;3.67;;;13.70;99.90;;;;;;5055152;28;20176;-64
2023/05/27 00:50:35;;;;;;;16.60;4.00;;;14.80;99.90;;;;;;5073025;28;20157;-64
2023/05/27 00:53:02;;;;;;;12.75;3.55;;;13.70;99.90;;;;;;5055020;28;20271;-64
2023/05/27 00:55:28;;;;;;;18.75;3.90;;;13.60;99.90;;;;;;5073029;28;20176;-65
2023/05/27 00:57:54;;;;;;;12.70;3.40;;;13.60;99.90;;;;;;5072886;28;20181;-64
2023/05/27 01:00:20;;;;;;;20.10;3.97;;;13.50;99.90;;;;;;5081673;28;20164;-64
2023/05/27 01:02:46;;;;;;;17.73;4.10;;;13.40;99.90;;;;;;5092819;28;20754;-64
2023/05/27 01:05:15;;;;;;;17.05;3.67;;;13.30;99.90;;;;;;5092704;28;20191;-64
2023/05/27 01:07:41;;;;;;;16.33;3.95;;;12.90;99.90;;;;;;5054749;28;20175;-64
2023/05/27 01:10:16;;;;;;;15.57;3.78;;;13.20;99.90;;;;;;5072607;28;20180;-64
2023/05/27 01:12:54;;;;;;;18.88;3.88;;;13.20;99.90;;;;;;5072600;28;20176;-64
2023/05/27 01:15:21;;;;;;;14.63;3.42;;;13.20;99.90;;;;;;5072376;28;20229;-64
2023/05/27 01:17:50;;;;;;;15.45;4.00;;;13.10;99.90;;;;;;5074919;28;20232;-64
2023/05/27 01:20:17;;;;;;;15.25;4.03;;;13.10;99.90;;;;;;5092564;28;20182;-65
2023/05/27 01:22:43;;;;;;;15.80;3.88;;;13.10;99.90;;;;;;5092492;28;20215;-65
2023/05/27 01:25:09;;;;;;;14.23;3.58;;;13.10;99.90;;;;;;5092720;28;20168;-65
2023/05/27 01:27:35;;;;;;;16.53;3.63;;;13.00;99.90;;;;;;5092433;28;20178;-65
2023/05/27 01:30:01;;;;;;;17.20;3.95;;;13.00;99.90;;;;;;5092702;28;20172;-65
2023/05/27 01:32:57;;;;;;;16.35;4.05;;;12.90;99.90;;;;;;5074369;28;20180;-65
2023/05/27 01:35:45;;;;;;;19.27;4.70;;;12.80;99.90;;;;;;5074166;28;20188;-65
2023/05/27 01:38:14;;;;;;;14.35;3.55;;;12.80;99.90;;;;;;5074162;28;20182;-65
2023/05/27 01:40:41;;;;;;;16.63;4.05;;;12.80;99.90;;;;;;5092312;28;20920;-65
2023/05/27 01:43:08;;;;;;;21.53;4.40;;;12.80;99.90;;;;;;5092082;28;20218;-65
2023/05/27 01:45:34;;;;;;;15.37;4.10;;;12.70;99.90;;;;;;5091976;28;20207;-67
2023/05/27 01:48:00;;;;;;;21.00;4.38;;;12.70;99.90;;;;;;5092041;28;20281;-64
2023/05/27 01:50:26;;;;;;;16.77;4.20;;;12.70;99.90;;;;;;5089174;28;20591;-66
2023/05/27 01:52:52;;;;;;;17.75;4.57;;;12.60;99.90;;;;;;5071746;28;20275;-68
2023/05/27 01:55:17;;;;;;;19.10;4.53;;;12.60;99.90;;;;;;5083367;28;20538;-68
2023/05/27 01:57:43;;;;;;;16.00;4.00;;;12.60;99.90;;;;;;5074005;28;20175;-68
2023/05/27 02:00:10;;;;;;;21.07;4.30;;;12.50;99.90;;;;;;5074034;28;20160;-68
2023/05/27 02:02:36;;;;;;;19.03;4.87;;;12.50;99.90;;;;;;5091193;28;20211;-69
2023/05/27 02:05:02;;;;;;;16.73;4.00;;;12.40;99.90;;;;;;5091798;28;20178;-69
2023/05/27 02:07:28;;;;;;;16.33;3.87;;;12.40;99.90;;;;;;5091722;28;20232;-64
2023/05/27 02:09:53;;;;;;;15.67;4.00;;;12.40;99.90;;;;;;5073497;28;20179;-63
2023/05/27 02:12:19;;;;;;;18.60;4.60;;;12.40;99.90;;;;;;5091693;28;20663;-66
2023/05/27 02:14:46;;;;;;;20.43;4.50;;;12.40;99.90;;;;;;5091961;28;20164;-66
2023/05/27 02:17:14;;;;;;;16.30;4.00;;;12.30;99.90;;;;;;5091713;28;20205;-66
2023/05/27 02:19:40;;;;;;;19.45;4.10;;;12.30;99.90;;;;;;5091450;28;20207;-64
2023/05/27 02:22:06;;;;;;;17.53;4.73;;;12.30;99.90;;;;;;5073352;28;20223;-63
2023/05/27 02:24:32;;;;;;;19.97;4.43;;;12.30;99.90;;;;;;5091669;28;20659;-64
2023/05/27 02:26:58;;;;;;;18.23;4.43;;;12.20;99.90;;;;;;5091540;28;20667;-64
2023/05/27 02:29:24;;;;;;;16.17;4.05;;;12.20;99.90;;;;;;5089270;28;20183;-64
2023/05/27 02:31:50;;;;;;;16.47;3.80;;;12.10;99.90;;;;;;5091240;28;20179;-64
2023/05/27 02:34:16;;;;;;;16.30;4.47;;;12.10;99.90;;;;;;5091013;28;20171;-64
2023/05/27 02:36:42;;;;;;;18.50;4.57;;;11.30;99.90;;;;;;5091294;28;20199;-64
2023/05/27 02:39:08;;;;;;;23.20;4.83;;;12.00;99.90;;;;;;5091421;28;20336;-65
2023/05/27 02:41:34;;;;;;;18.30;4.20;;;12.00;99.90;;;;;;5091071;28;20719;-64
2023/05/27 02:44:00;;;;;;;21.00;4.40;;;12.00;99.90;;;;;;5091252;28;20296;-66
2023/05/27 02:46:25;;;;;;;19.50;4.50;;;12.00;99.90;;;;;;5090936;28;20253;-66
2023/05/27 02:48:51;;;;;;;17.60;4.40;;;12.00;99.90;;;;;;5090428;28;20576;-64
2023/05/27 02:51:17;;;;;;;19.30;4.07;;;11.90;99.90;;;;;;5091117;28;20225;-65
2023/05/27 02:53:42;;;;;;;20.83;4.43;;;11.90;99.90;;;;;;5090985;28;20172;-64
2023/05/27 02:56:08;;;;;;;19.10;4.63;;;11.80;99.90;;;;;;5085918;28;20179;-66
2023/05/27 02:58:33;;;;;;;24.23;4.57;;;11.70;99.90;;;;;;5090586;28;20186;-67
2023/05/27 03:00:59;;;;;;;18.73;4.27;;;11.70;99.90;;;;;;5091019;28;20163;-64
2023/05/27 03:03:25;;;;;;;20.60;4.77;;;11.70;99.90;;;;;;5090762;28;20203;-64
2023/05/27 03:05:50;;;;;;;25.60;5.17;;;11.60;99.90;;;;;;5088937;28;20723;-65
2023/05/27 03:08:16;;;;;;;21.83;4.73;;;11.60;99.90;;;;;;5090549;28;20251;-67
2023/05/27 03:10:42;;;;;;;19.27;5.17;;;11.50;99.90;;;;;;5084820;28;20184;-65
2023/05/27 03:13:07;;;;;;;26.80;5.47;;;11.50;99.90;;;;;;5073860;28;20168;-66
2023/05/27 03:15:35;;;;;;;18.00;4.23;;;;;;;;;;5091153;28;20172;-64
2023/05/27 03:18:03;;;;;;;17.77;4.40;;;;;;;;;;5091271;28;20164;-65
2023/05/27 03:20:29;;;;;;;17.17;4.40;;;11.30;99.90;;;;;;5090593;28;20184;-65
2023/05/27 03:22:55;;;;;;;14.67;4.17;;;11.30;99.90;;;;;;5090716;28;20584;-66
2023/05/27 03:25:21;;;;;;;18.47;4.17;;;;;;;;;;5078440;28;20168;-66
2023/05/27 03:27:46;;;;;;;22.40;5.00;;;11.20;99.90;;;;;;5075696;28;20188;-65
2023/05/27 03:30:12;;;;;;;21.07;3.90;;;11.10;99.90;;;;;;5089001;28;20531;-65
2023/05/27 03:32:38;;;;;;;20.50;4.47;;;11.10;99.90;;;;;;5090465;28;20211;-67
2023/05/27 03:35:03;;;;;;;22.57;4.53;;;11.10;99.90;;;;;;5090507;28;20508;-65
2023/05/27 03:37:29;;;;;;;26.67;5.03;;;10.90;99.90;;;;;;5085333;28;20237;-67
2023/05/27 03:39:55;;;;;;;25.27;4.80;;;;;;;;;;5072461;28;20183;-65
2023/05/27 03:42:21;;;;;;;18.23;4.53;;;11.00;99.90;;;;;;5093324;28;20225;-66
2023/05/27 03:44:46;;;;;;;20.57;4.80;;;11.00;99.90;;;;;;5094580;28;20172;-65
2023/05/27 03:47:12;;;;;;;17.27;4.27;;;10.90;99.90;;;;;;5094163;28;20228;-68
2023/05/27 03:49:39;;;;;;;17.10;4.40;;;10.90;99.90;;;;;;5075741;28;20223;-66
2023/05/27 03:52:06;;;;;;;19.13;4.63;;;10.90;99.90;;;;;;5094390;28;20221;-66
2023/05/27 03:54:31;;;;;;;17.23;4.27;;;10.90;99.90;;;;;;5088797;28;20204;-66
2023/05/27 03:56:57;;;;;;;16.90;4.77;;;10.80;99.90;;;;;;5083074;28;20288;-70
2023/05/27 03:59:22;;;;;;;18.57;4.63;;;10.80;99.90;;;;;;5094083;28;20191;-69
2023/05/27 04:01:48;;;;;;;25.67;5.40;;;10.70;99.90;;;;;;5093789;28;20207;-71
2023/05/27 04:04:14;;;;;;;23.77;5.10;;;10.80;99.90;;;;;;5094593;28;20567;-71
2023/05/27 04:06:41;;;;;;;16.87;4.23;;;10.60;99.90;;;;;;5093834;28;20655;-72
2023/05/27 04:09:07;;;;;;;22.30;4.90;;;10.60;99.90;;;;;;5094125;28;20180;-71
2023/05/27 04:11:33;;;;;;;19.23;4.70;;;10.50;99.90;;;;;;5094033;28;20693;-71
2023/05/27 04:13:58;;;;;;;16.20;4.30;;;10.60;99.90;;;;;;5094200;28;20257;-73
2023/05/27 04:16:24;;;;;;;20.93;4.23;;;10.50;99.90;;;;;;5093988;28;20504;-73
2023/05/27 04:18:53;;;;;;;18.83;4.97;;;10.40;99.90;;;;;;5094242;28;20176;-73
2023/05/27 04:21:19;;;;;;;22.07;4.37;;;10.50;99.90;;;;;;5094014;28;20168;-73
2023/05/27 04:23:44;;;;;;;21.07;5.03;;;10.50;99.90;;;;;;5093943;28;20221;-72
2023/05/27 04:26:10;;;;;;;22.10;4.30;;;10.40;99.90;;;;;;5093929;28;20163;-72
2023/05/27 04:28:36;;;;;;;27.30;4.80;;;10.40;99.90;;;;;;5093806;28;20168;-74
2023/05/27 04:31:02;;;;;;;17.93;4.10;;;10.50;99.90;;;;;;5093709;28;20709;-72
2023/05/27 04:33:27;;;;;;;19.23;4.70;;;10.50;99.90;;;;;;5093634;28;20152;-67
2023/05/27 04:35:55;;;;;;;22.80;4.50;;;10.50;99.90;;;;;;5093608;28;20183;-69
2023/05/27 04:38:21;;;;;;;28.00;4.80;;;10.50;99.90;;;;;;5093617;28;20164;-68
2023/05/27 04:40:59;;;;;;;17.27;4.30;;;10.50;99.90;;;;;;5093561;28;20517;-69
2023/05/27 04:43:26;;;;;;;21.33;4.70;;;10.40;99.90;;;;;;5093409;28;20718;-68
2023/05/27 04:45:52;;;;;;;19.70;4.17;;;10.40;99.90;;;;;;5093361;28;20223;-69
2023/05/27 04:48:19;;;;;;;17.87;4.63;;;10.40;99.90;;;;;;5093405;28;20172;-68
2023/05/27 04:50:45;;;;;;;19.53;4.40;;;10.90;99.90;;;;;;5093217;28;20648;-68
2023/05/27 04:53:11;;;;;;;19.17;4.23;;;10.40;99.90;;;;;;5091857;28;20183;-69
2023/05/27 04:55:38;;;;;;;23.03;5.00;;;10.40;99.90;;;;;;5093129;28;20179;-68
2023/05/27 04:58:05;;;;;;;26.53;5.33;;;10.40;99.90;;;;;;5092999;28;20170;-68
2023/05/27 05:00:49;;;;;;;23.93;4.47;;;10.40;99.90;;;;;;5093057;28;20176;-68
2023/05/27 05:03:39;;;;;;;19.30;4.27;;;10.50;99.90;;;;;;5093111;28;20218;-66
2023/05/27 05:06:05;;;;;;;22.37;4.20;;;10.50;99.90;;;;;;5093067;28;20187;-68
2023/05/27 05:08:31;;;;;;;23.43;4.27;;;10.50;99.90;;;;;;5090921;28;20175;-69
2023/05/27 05:10:57;;;;;;;16.53;4.20;;;10.50;99.90;;;;;;5092574;28;20179;-67
2023/05/27 05:13:22;;;;;;;28.13;5.00;;;10.50;99.90;;;;;;5092711;28;20266;-67
2023/05/27 05:15:48;;;;;;;19.13;5.00;;;10.60;99.90;;;;;;5074410;28;20636;-67
2023/05/27 05:18:14;;;;;;;20.27;4.83;;;10.60;99.90;;;;;;5093133;28;20171;-67
2023/05/27 05:20:40;;;;;;;28.63;4.37;;;10.60;99.90;;;;;;5092412;28;20206;-66
2023/05/27 05:23:08;;;;;;;17.10;4.90;;;10.60;99.90;;;;;;5092476;28;20239;-66
2023/05/27 05:25:37;;;;;;;25.50;4.43;;;10.50;99.90;;;;;;5092664;28;20167;-67
2023/05/27 05:28:05;;;;;;;22.13;4.60;;;10.60;99.90;;;;;;5092496;28;20660;-67
2023/05/27 05:30:31;;;;;;;18.40;4.40;;;10.50;99.90;;;;;;5092508;28;20175;-68
2023/05/27 05:32:57;;;;;;;26.30;4.40;;;10.50;99.90;;;;;;5092478;28;20171;-67
2023/05/27 05:35:22;;;;;;;27.60;4.93;;;10.70;99.90;;;;;;5092383;28;20178;-67
2023/05/27 05:37:49;;;;;;;24.33;4.97;;;10.70;99.90;;;;;;5092401;28;20168;-68
2023/05/27 05:40:14;;;;;;;24.10;5.20;;;10.60;99.90;;;;;;5092539;28;20194;-72
2023/05/27 05:42:40;;;;;;;20.93;4.80;;;10.60;99.90;;;;;;5092184;28;20691;-71
2023/05/27 05:45:06;;;;;;;22.63;4.50;;;10.60;99.90;;;;;;5092235;28;20164;-71
2023/05/27 05:47:32;;;;;;;17.27;4.30;;;10.60;99.90;;;;;;5073807;28;20273;-68
2023/05/27 05:49:58;;;;;;;27.87;4.93;;;10.70;99.90;;;;;;5091984;28;20182;-68
2023/05/27 05:52:24;;;;;;;23.20;4.53;;;10.70;99.90;;;;;;5092156;28;20164;-68
2023/05/27 05:54:49;;;;;;;26.10;5.00;;;10.80;99.90;;;;;;5084141;28;20156;-69
2023/05/27 05:57:15;;;;;;;20.10;4.30;;;10.80;99.90;;;;;;5072006;28;20169;-69
2023/05/27 05:59:41;;;;;;;19.00;5.00;;;10.90;99.90;;;;;;5071754;28;20713;-69
2023/05/27 06:02:07;;;;;;;27.70;5.53;;;11.00;99.90;;;;;;5071520;28;20279;-69
2023/05/27 06:04:32;;;;;;;28.47;4.80;;;11.00;99.90;;;;;;5071660;28;20175;-69
2023/05/27 06:06:58;;;;;;;26.53;4.83;;;11.00;99.90;;;;;;5071333;28;20169;-69
2023/05/27 06:09:25;;;;;;;23.43;5.10;;;11.20;99.90;;;;;;5071524;28;20222;-69
2023/05/27 06:11:50;;;;;;;22.90;5.53;;;11.20;99.90;;;;;;5070069;28;20254;-69
2023/05/27 06:14:16;;;;;;;28.90;5.30;;;11.30;99.90;;;;;;5071619;28;20259;-69
2023/05/27 06:16:42;;;;;;;28.50;6.17;;;11.30;99.90;;;;;;5071906;28;20176;-69
2023/05/27 06:19:07;;;;;;;29.60;5.27;;;11.30;99.90;;;;;;5071553;28;20640;-69
2023/05/27 06:21:33;;;;;;;23.70;4.63;;;11.40;99.90;;;;;;5071233;28;20665;-70
2023/05/27 06:23:59;;;;;;;20.60;5.17;;;11.30;99.90;;;;;;5071439;28;20263;-70
2023/05/27 06:26:27;;;;;;;22.60;4.57;;;11.40;99.90;;;;;;5071340;28;20172;-69
2023/05/27 06:28:52;;;;;;;26.53;4.93;;;11.40;99.90;;;;;;5071377;28;20180;-68
2023/05/27 06:31:18;;;;;;;24.30;6.03;;;11.40;99.90;;;;;;5071119;28;20647;-69
2023/05/27 06:33:45;;;;;;;23.63;5.43;;;11.50;99.90;;;;;;5071172;28;20188;-66
2023/05/27 06:36:10;;;;;;;27.57;5.37;;;11.50;99.90;;;;;;5071184;28;20175;-66
2023/05/27 06:38:36;;;;;;;21.37;5.30;;;11.60;99.90;;;;;;5071171;28;20176;-67
2023/05/27 06:41:02;;;;;;;24.47;4.63;;;11.70;99.90;;;;;;5071061;28;20169;-68
2023/05/27 06:43:28;;;;;;;24.43;5.20;;;;;;;;;;5070955;28;20211;-67
2023/05/27 06:45:54;;;;;;;22.30;5.27;;;11.80;99.90;;;;;;5070848;28;20216;-68
2023/05/27 06:48:20;;;;;;;23.43;5.50;;;11.90;99.90;;;;;;5070711;28;20184;-67
2023/05/27 06:50:45;;;;;;;28.23;5.07;;;12.00;99.90;;;;;;5070895;28;20169;-65
2023/05/27 06:53:13;;;;;;;20.97;5.17;;;;;;;;;;5070987;28;20165;-64
2023/05/27 06:55:38;;;;;;;28.07;5.67;;;12.00;99.90;;;;;;5070976;28;20179;-63
2023/05/27 06:58:04;;;;;;;21.23;5.03;;;12.30;99.90;;;;;;5071330;28;20248;-63
2023/05/27 07:00:29;;;;;;;26.47;4.53;;;12.20;99.90;;;;;;5085944;28;20252;-63
2023/05/27 07:02:55;;;;;;;25.43;5.03;;;12.30;99.90;;;;;;5088850;28;20318;-62
2023/05/27 07:05:21;;;;;;;27.17;5.07;;;12.50;99.90;;;;;;5089890;28;20176;-64
2023/05/27 07:07:47;;;;;;;29.37;6.00;;;;;;;;;;5090924;28;20270;-63
2023/05/27 07:10:12;;;;;;;25.10;5.30;;;12.50;99.90;;;;;;5090927;28;20171;-63
2023/05/27 07:12:38;;;;;;;26.07;5.10;;;12.60;99.90;;;;;;5090956;28;20179;-66
2023/05/27 07:15:04;;;;;;;26.60;5.90;;;12.60;99.90;;;;;;5090806;28;20568;-67
2023/05/27 07:17:29;;;;;;;20.83;5.63;;;12.50;99.90;;;;;;5094298;28;20183;-66
2023/05/27 07:19:55;;;;;;;21.53;5.77;;;12.30;99.90;;;;;;5084242;28;20180;-66
2023/05/27 07:22:21;;;;;;;23.20;5.40;;;12.20;99.90;;;;;;5074684;28;20200;-69
2023/05/27 07:24:47;;;;;;;21.17;5.60;;;11.90;99.90;;;;;;5085889;28;20567;-69
2023/05/27 07:27:12;;;;;;;20.20;5.63;;;11.90;99.90;;;;;;5094726;28;20198;-68
2023/05/27 07:29:38;;;;;;;27.53;5.80;;;12.10;99.90;;;;;;5094925;28;20168;-67
2023/05/27 07:32:04;;;;;;;24.27;5.87;;;12.20;99.90;;;;;;5094864;28;20172;-67
2023/05/27 07:34:29;;;;;;;26.83;6.20;;;12.10;99.90;;;;;;5094733;28;20163;-68
2023/05/27 07:36:56;;;;;;;26.03;6.00;;;12.10;99.90;;;;;;5094787;28;20652;-66
2023/05/27 07:39:21;;;;;;;25.50;5.57;;;12.30;99.90;;;;;;5094002;28;20176;-66
2023/05/27 07:41:47;;;;;;;24.07;5.80;;;12.50;99.90;;;;;;5094879;28;20207;-66
2023/05/27 07:44:13;;;;;;;19.20;5.67;;;12.50;99.90;;;;;;5094619;28;20233;-66
2023/05/27 07:46:38;;;;;;;23.10;5.97;;;12.30;99.90;;;;;;5094073;28;20695;-66
2023/05/27 07:49:05;;;;;;;22.90;6.13;;;12.50;99.90;;;;;;5094609;28;20204;-71
2023/05/27 07:51:31;;;;;;;16.27;5.40;;;12.60;99.90;;;;;;5094542;28;20179;-70
2023/05/27 07:53:57;;;;;;;23.10;5.77;;;12.70;99.90;;;;;;5094585;28;20175;-70
2023/05/27 07:56:23;;;;;;;22.47;5.57;;;14.10;99.90;;;;;;5094226;28;20192;-71
2023/05/27 07:58:48;;;;;;;18.90;5.80;;;13.00;99.90;;;;;;5094294;28;20175;-70
2023/05/27 08:01:14;;;;;;;20.70;6.20;;;13.20;99.90;;;;;;5094197;28;20179;-70
2023/05/27 08:03:39;;;;;;;25.33;6.32;;;13.00;99.90;;;;;;5094131;28;20212;-72
2023/05/27 08:06:07;;;;;;;21.80;6.28;;;13.20;99.90;;;;;;5093862;28;20180;-71
2023/05/27 08:08:32;;;;;;;25.05;7.32;;;12.80;99.90;;;;;;5094370;28;20176;-71
2023/05/27 08:10:58;;;;;;;23.10;6.30;;;12.80;99.90;;;;;;5094072;28;20530;-63
2023/05/27 08:13:23;;;;;;;26.53;7.10;;;12.80;99.90;;;;;;5093961;28;20203;-63
2023/05/27 08:15:49;;;;;;;24.57;6.93;;;13.00;99.90;;;;;;5093685;28;20186;-61
2023/05/27 08:18:15;;;;;;;28.27;6.77;;;13.10;99.90;;;;;;5093749;28;20197;-62
2023/05/27 08:20:41;;;;;;;29.27;7.10;;;;;;;;;;5093828;28;20229;-62
2023/05/27 08:23:07;;;;;;;18.27;6.13;;;13.60;99.90;;;;;;5092382;28;20219;-70
2023/05/27 08:25:32;;;;;;;23.85;6.25;;;14.10;99.90;;;;;;5093889;28;20183;-74
2023/05/27 08:28:01;;;;;;;19.70;5.18;;;14.20;99.90;;;;;;5093381;28;20168;-66
2023/05/27 08:30:30;;;;;;;25.35;5.90;;;14.30;99.90;;;;;;5092442;28;20180;-62
2023/05/27 08:32:56;;;;;;;23.98;6.05;;;14.40;99.90;;;;;;5093544;28;20168;-62
2023/05/27 08:35:22;;;;;;;29.15;5.95;;;14.60;99.90;;;;;;5085357;28;20276;-61
2023/05/27 08:37:48;;;;;;;24.45;5.32;;;;;;;;;;5093381;28;20559;-59
2023/05/27 08:40:16;;;;;;;21.70;5.85;;;15.80;99.90;;;;;;5092980;28;20213;-61
2023/05/27 08:42:42;;;;;;;21.10;6.00;;;15.70;99.90;;;;;;5073689;28;20247;-59
2023/05/27 08:45:09;;;;;;;23.45;5.45;;;15.90;99.90;;;;;;5080429;28;20218;-62
2023/05/27 08:47:35;;;;;;;24.98;5.05;;;16.70;99.90;;;;;;5093225;28;20929;-61
2023/05/27 08:50:01;;;;;;;23.42;5.18;;;17.30;99.90;;;;;;5093009;28;20198;-62
2023/05/27 08:52:27;;;;;;;16.88;4.97;;;17.40;99.90;;;;;;5092242;28;20675;-62
2023/05/27 08:54:56;;;;;;;22.75;5.70;;;17.80;99.90;;;;;;5092620;28;20160;-62
2023/05/27 08:57:24;;;;;;;19.55;5.53;;;17.20;99.90;;;;;;5092776;28;20167;-61
2023/05/27 08:59:53;;;;;;;24.02;5.63;;;17.80;99.90;;;;;;5092174;28;20172;-62
2023/05/27 09:02:21;;;;;;;19.73;4.90;;;18.20;99.90;;;;;;5092732;28;20203;-62
2023/05/27 09:04:47;;;;;;;18.05;4.93;;;18.00;99.90;;;;;;5092644;28;20272;-61
2023/05/27 09:07:12;;;;;;;20.67;4.93;;;18.10;99.90;;;;;;5091921;28;20184;-61
2023/05/27 09:09:41;;;;;;;22.20;5.43;;;18.10;99.90;;;;;;5091429;28;20176;-60
2023/05/27 09:12:08;;;;;;;18.35;4.53;;;18.30;99.90;;;;;;5083135;28;20186;-60
2023/05/27 09:14:37;;;;;;;17.92;4.93;;;18.70;99.90;;;;;;5092215;28;20230;-61
2023/05/27 09:17:08;;;;;;;17.30;4.72;;;19.40;99.90;;;;;;5091422;28;20180;-60
2023/05/27 09:19:33;;;;;;;19.15;5.40;;;19.30;99.90;;;;;;5084218;28;20185;-60
2023/05/27 09:21:59;;;;;;;18.88;4.70;;;18.90;99.90;;;;;;5089029;28;20631;-60
2023/05/27 09:24:25;;;;;;;16.42;4.35;;;19.00;99.90;;;;;;5073146;28;20183;-60
2023/05/27 09:26:52;;;;;;;16.05;4.60;;;18.70;99.90;;;;;;5092160;28;20239;-60
2023/05/27 09:29:24;;;;;;;19.38;4.30;;;18.70;99.90;;;;;;5092253;28;20168;-60
2023/05/27 09:31:54;;;;;;;17.75;4.43;;;19.10;99.90;;;;;;5091862;28;20180;-60
2023/05/27 09:34:20;;;;;;;28.63;5.82;;;19.30;99.90;;;;;;5091922;28;20172;-60
2023/05/27 09:36:48;;;;;;;20.98;5.00;;;19.60;99.90;;;;;;5092167;28;20241;-60
2023/05/27 09:39:15;;;;;;;20.85;4.75;;;19.40;99.90;;;;;;5090828;28;20171;-60
2023/05/27 09:41:42;;;;;;;17.27;4.35;;;19.70;99.90;;;;;;5092008;28;20613;-61
2023/05/27 09:44:08;;;;;;;17.85;4.20;;;20.00;99.90;;;;;;5092190;28;20180;-61
2023/05/27 09:46:34;;;;;;;15.77;4.43;;;20.10;99.90;;;;;;5091878;28;20211;-60
2023/05/27 09:49:02;;;;;;;18.40;4.93;;;20.50;99.90;;;;;;5091991;28;20232;-60
2023/05/27 09:51:29;;;;;;;16.83;4.63;;;22.00;99.90;;;;;;5091621;28;20210;-61
2023/05/27 09:53:57;;;;;;;21.15;4.80;;;20.50;99.90;;;;;;5091723;28;20183;-60
2023/05/27 09:56:27;;;;;;;17.80;4.25;;;20.20;99.90;;;;;;5083180;28;20188;-60
2023/05/27 09:58:56;;;;;;;15.13;4.53;;;20.70;99.90;;;;;;5091653;28;20183;-61
2023/05/27 10:01:28;;;;;;;19.20;5.05;;;20.70;99.90;;;;;;5077999;28;20176;-60
2023/05/27 10:03:56;;;;;;;14.20;4.35;;;;;;;;;;5073571;28;20738;-61
2023/05/27 10:06:24;;;;;;;17.55;4.78;;;21.50;99.90;;;;;;5091661;28;20171;-62
2023/05/27 10:08:52;;;;;;;16.75;4.45;;;21.30;99.90;;;;;;5091575;28;20197;-61
2023/05/27 10:11:18;;;;;;;21.05;4.43;;;;;;;;;;5091391;28;20191;-61
2023/05/27 10:13:45;;;;;;;15.80;4.35;;;;;;;;;;5073788;28;20258;-62
2023/05/27 10:16:22;;;;;;;14.68;3.90;;;21.50;99.90;;;;;;5091493;28;20200;-61
2023/05/27 10:18:52;;;;;;;12.55;4.07;;;21.80;99.90;;;;;;5075720;28;20507;-61
2023/05/27 10:21:23;;;;;;;15.85;4.43;;;21.60;99.90;;;;;;5071343;28;20173;-61
2023/05/27 10:24:02;;;;;;;19.13;4.20;;;21.90;99.90;;;;;;5071309;28;20214;-61
2023/05/27 10:26:36;;;;;;;15.20;4.22;;;21.80;99.90;;;;;;5081287;28;20225;-61
2023/05/27 10:29:10;;;;;;;16.50;4.10;;;21.80;99.90;;;;;;5072930;28;20234;-61
2023/05/27 10:31:43;;;;;;;13.23;3.80;;;21.80;99.90;;;;;;5091415;28;20171;-61
2023/05/27 10:34:08;;;;;;;18.00;4.35;;;22.20;99.90;;;;;;5091136;28;20646;-62
2023/05/27 10:36:36;;;;;;;18.55;4.53;;;22.80;99.00;;;;;;5091183;28;20206;-62
2023/05/27 10:39:06;;;;;;;14.63;4.00;;;22.60;87.80;;;;;;5089549;28;20254;-62
2023/05/27 10:41:42;;;;;;;14.75;3.88;;;23.00;81.60;;;;;;5088893;28;20176;-61
2023/05/27 10:44:09;;;;;;;12.95;4.00;;;23.00;81.40;;;;;;5070865;28;20183;-61
2023/05/27 10:46:43;;;;;;;11.00;4.13;;;23.30;63.60;;;;;;5078293;28;20227;-62
2023/05/27 10:49:22;;;;;;;12.90;3.42;;;23.40;60.30;;;;;;5090577;28;20210;-61
2023/05/27 10:51:48;;;;;;;9.73;3.97;;;23.20;42.10;;;;;;5090841;28;20198;-61
2023/05/27 10:54:15;;;;;;;12.15;3.83;;;24.00;49.20;;;;;;5090735;28;20632;-61
2023/05/27 10:56:51;;;;;;;21.20;4.75;;;23.80;34.80;;;;;;5090563;28;20192;-62
2023/05/27 10:59:21;;;;;;;12.88;4.05;;;24.10;29.60;;;;;;5090944;28;20241;-62
2023/05/27 11:01:52;;;;;;;13.75;3.80;;;23.60;12.70;;;;;;5081989;28;20204;-62
2023/05/27 11:04:18;;;;;;;11.02;3.83;;;23.80;21.60;;;;;;5077940;28;20176;-61
2023/05/27 11:06:56;;;;;;;10.25;3.70;;;24.10;20.80;;;;;;5070620;28;20547;-61
2023/05/27 11:09:22;;;;;;;9.70;3.97;;;24.00;14.30;;;;;;5070540;28;20222;-61
2023/05/27 11:11:48;;;;;;;13.95;3.83;;;24.10;17.70;;;;;;5070513;28;20176;-61
2023/05/27 11:14:13;;;;;;;10.82;3.55;;;24.20;1.00;;;;;;5070442;28;20169;-62
2023/05/27 11:16:39;;;;;;;11.88;3.35;;;24.30;1.00;;;;;;5070447;28;20251;-60
2023/05/27 11:19:04;;;;;;;11.98;3.38;;;24.80;1.00;;;;;;5088036;28;20180;-61
2023/05/27 11:21:30;;;;;;;10.30;3.20;;;25.00;1.00;;;;;;5090157;28;20176;-61
2023/05/27 11:23:56;;;;;;;11.77;3.65;;;25.40;1.00;;;;;;5089815;28;20278;-62
2023/05/27 11:26:25;;;;;;;10.30;3.70;;;25.70;1.00;;;;;;5090717;28;20225;-62
2023/05/27 11:28:57;;;;;;;9.32;3.65;;;25.70;1.00;;;;;;5072564;28;20179;-62
2023/05/27 11:31:30;;;;;;;13.00;3.60;;;25.70;1.00;;;;;;5090726;28;20536;-62
2023/05/27 11:33:56;;;;;;;11.90;3.33;;;25.50;1.00;;;;;;5090491;28;20263;-62
2023/05/27 11:36:26;;;;;;;9.63;3.00;;;26.10;1.00;;;;;;5090325;28;20217;-61
2023/05/27 11:38:57;;;;;;;7.97;2.92;;;26.50;1.00;;;;;;5089919;28;20648;-61
2023/05/27 11:41:27;;;;;;;10.20;3.58;;;25.40;1.00;;;;;;5090432;28;20224;-62
2023/05/27 11:44:00;;;;;;;9.10;2.92;;;26.20;1.00;;;;;;5090412;28;20221;-61
2023/05/27 11:46:38;;;;;;;9.18;2.80;;;26.80;1.00;;;;;;5089451;28;20230;-61
2023/05/27 11:49:08;;;;;;;12.93;3.40;;;26.40;1.00;;;;;;5090485;28;20179;-61
2023/05/27 11:51:38;;;;;;;10.77;3.38;;;27.10;1.00;;;;;;5090460;28;20168;-62
2023/05/27 11:54:04;;;;;;;11.38;3.30;;;27.60;1.00;;;;;;5072305;28;20225;-61
2023/05/27 11:56:30;;;;;;;10.75;3.60;;;27.50;1.00;;;;;;5090208;28;20180;-61
2023/05/27 11:58:56;;;;;;;9.50;3.53;;;27.80;1.00;;;;;;5090563;28;20490;-64
2023/05/27 12:01:22;;;;;;;12.38;3.72;;;27.80;1.00;;;;;;5090203;28;20480;-61
2023/05/27 12:03:48;;;;;;;10.10;3.55;;;27.50;1.00;;;;;;5092360;28;20283;-61
2023/05/27 12:06:14;;;;;;;9.77;3.55;;;27.70;1.00;;;;;;5093759;28;20271;-62
2023/05/27 12:08:41;;;;;;;9.48;3.50;;;27.70;1.00;;;;;;5092990;28;20167;-61
2023/05/27 12:11:06;;;;;;;11.65;3.40;;;27.50;1.00;;;;;;5084252;28;20180;-62
2023/05/27 12:13:32;;;;;;;10.98;3.10;;;27.90;1.00;;;;;;5073379;28;20295;-61
2023/05/27 12:15:58;;;;;;;12.63;3.50;;;27.70;1.00;;;;;;5073539;28;20673;-61
2023/05/27 12:18:24;;;;;;;10.75;3.30;;;28.50;1.00;;;;;;5073478;28;20191;-62
2023/05/27 12:20:50;;;;;;;8.02;2.78;;;28.20;1.00;;;;;;5073158;28;20180;-61
2023/05/27 12:23:16;;;;;;;10.60;2.75;;;28.60;1.00;;;;;;5081995;28;20676;-62
2023/05/27 12:25:42;;;;;;;8.73;2.80;;;28.30;1.00;;;;;;5078859;28;20700;-61
2023/05/27 12:28:08;;;;;;;9.27;3.20;;;28.60;1.00;;;;;;5079501;28;20640;-61
2023/05/27 12:30:34;;;;;;;8.20;3.00;;;29.10;1.00;;;;;;5093366;28;20266;-62
2023/05/27 12:33:01;;;;;;;9.38;2.80;;;29.60;1.00;;;;;;5091860;28;20195;-62
2023/05/27 12:35:27;;;;;;;10.38;2.80;;;;;;;;;;5093527;28;20167;-61
2023/05/27 12:37:52;;;;;;;7.30;3.20;;;29.40;1.00;;;;;;5074882;28;20198;-61
2023/05/27 12:40:18;;;;;;;8.65;2.85;;;29.60;1.00;;;;;;5093354;28;20631;-62
2023/05/27 12:42:44;;;;;;;9.48;3.50;;;29.40;1.00;;;;;;5092834;28;20226;-62